createdAt,value
2023-04-11T00:00:24.371Z,10.40
2023-04-11T00:01:24.355Z,10.42
2023-04-11T00:02:24.432Z,10.40
2023-04-11T00:03:24.684Z,10.40
2023-04-11T00:04:24.335Z,10.42
2023-04-11T00:05:24.286Z,10.40
2023-04-11T00:06:24.304Z,10.40
2023-04-11T00:07:24.260Z,10.40
2023-04-11T00:08:24.273Z,10.40
2023-04-11T00:09:24.234Z,10.40
2023-04-11T00:10:24.429Z,10.39
2023-04-11T00:11:24.239Z,10.39
2023-04-11T00:12:24.191Z,10.37
2023-04-11T00:13:24.183Z,10.39
2023-04-11T00:14:24.168Z,10.39
2023-04-11T00:15:59.179Z,10.39
2023-04-11T00:16:59.090Z,10.37
2023-04-11T00:17:59.094Z,10.39
2023-04-11T00:18:59.066Z,10.39
2023-04-11T00:19:59.055Z,10.37
2023-04-11T00:20:59.048Z,10.39
2023-04-11T00:21:59.027Z,10.37
2023-04-11T00:22:59.012Z,10.37
2023-04-11T00:23:59.002Z,10.37
2023-04-11T00:24:58.987Z,10.37
2023-04-11T00:25:58.980Z,10.39
2023-04-11T00:26:58.985Z,10.37
2023-04-11T00:27:58.948Z,10.37
2023-04-11T00:28:58.935Z,10.36
2023-04-11T00:29:58.919Z,10.36
2023-04-11T00:30:58.905Z,10.36
2023-04-11T00:31:58.966Z,10.37
2023-04-11T00:32:58.927Z,10.37
2023-04-11T00:33:58.866Z,10.36
2023-04-11T00:34:58.850Z,10.34
2023-04-11T00:35:58.934Z,10.36
2023-04-11T00:36:58.854Z,10.34
2023-04-11T00:37:58.810Z,10.36
2023-04-11T00:38:58.846Z,10.36
2023-04-11T00:39:58.785Z,10.34
2023-04-11T00:40:58.773Z,10.36
2023-04-11T00:41:58.760Z,10.36
2023-04-11T00:42:58.770Z,10.36
2023-04-11T00:43:58.731Z,10.36
2023-04-11T00:44:58.716Z,10.36
2023-04-11T00:45:58.741Z,10.34
2023-04-11T00:46:58.687Z,10.36
2023-04-11T00:47:58.743Z,10.34
2023-04-11T00:48:58.771Z,10.34
2023-04-11T00:49:58.650Z,10.34
2023-04-11T00:50:58.638Z,10.34
2023-04-11T00:51:58.622Z,10.34
2023-04-11T00:52:58.612Z,10.34
2023-04-11T00:53:58.597Z,10.37
2023-04-11T00:54:58.588Z,10.34
2023-04-11T00:55:58.568Z,10.36
2023-04-11T00:56:58.557Z,10.34
2023-04-11T00:57:58.542Z,10.34
2023-04-11T00:58:58.558Z,10.33
2023-04-11T00:59:58.516Z,10.34
2023-04-11T01:00:58.539Z,10.34
2023-04-11T01:01:58.684Z,10.34
2023-04-11T01:02:58.706Z,10.33
2023-04-11T01:03:58.634Z,10.34
2023-04-11T01:04:58.452Z,10.33
2023-04-11T01:05:58.435Z,10.34
2023-04-11T01:06:58.430Z,10.34
2023-04-11T01:07:58.412Z,10.33
2023-04-11T01:08:58.546Z,10.34
2023-04-11T01:09:58.386Z,10.33
2023-04-11T01:10:58.374Z,10.32
2023-04-11T01:11:58.358Z,10.33
2023-04-11T01:12:58.346Z,10.33
2023-04-11T01:13:58.343Z,10.33
2023-04-11T01:14:58.355Z,10.33
2023-04-11T01:15:58.305Z,10.32
2023-04-11T01:16:58.403Z,10.32
2023-04-11T01:17:58.284Z,10.32
2023-04-11T01:18:58.272Z,10.32
2023-04-11T01:19:58.251Z,10.32
2023-04-11T01:20:58.244Z,10.32
2023-04-11T01:21:58.225Z,10.33
2023-04-11T01:22:58.217Z,10.32
2023-04-11T01:23:58.199Z,10.32
2023-04-11T01:24:58.205Z,10.32
2023-04-11T01:25:58.173Z,10.33
2023-04-11T01:26:58.162Z,10.33
2023-04-11T01:27:58.147Z,10.33
2023-04-11T01:28:58.260Z,10.33
2023-04-11T01:29:58.118Z,10.32
2023-04-11T01:30:58.172Z,10.33
2023-04-11T01:31:58.096Z,10.33
2023-04-11T01:32:58.170Z,10.34
2023-04-11T01:33:58.066Z,10.33
2023-04-11T01:34:58.081Z,10.33
2023-04-11T01:35:58.096Z,10.33
2023-04-11T01:36:58.026Z,10.32
2023-04-11T01:37:58.011Z,10.32
2023-04-11T01:38:58.098Z,10.33
2023-04-11T01:39:57.988Z,10.33
2023-04-11T01:40:57.970Z,10.32
2023-04-11T01:41:57.995Z,10.32
2023-04-11T01:42:57.953Z,10.33
2023-04-11T01:43:57.929Z,10.33
2023-04-11T01:44:57.926Z,10.32
2023-04-11T01:45:57.901Z,10.32
2023-04-11T01:46:57.912Z,10.32
2023-04-11T01:47:57.942Z,10.32
2023-04-11T01:48:58.138Z,10.32
2023-04-11T01:49:57.845Z,10.32
2023-04-11T01:50:57.850Z,10.32
2023-04-11T01:51:57.818Z,10.30
2023-04-11T01:52:57.806Z,10.32
2023-04-11T01:53:57.803Z,10.32
2023-04-11T01:54:57.786Z,10.30
2023-04-11T01:55:57.763Z,10.30
2023-04-11T01:56:57.765Z,10.32
2023-04-11T01:57:57.750Z,10.30
2023-04-11T01:58:58.034Z,10.32
2023-04-11T01:59:57.766Z,10.30
2023-04-11T02:00:57.715Z,10.30
2023-04-11T02:01:57.815Z,10.30
2023-04-11T02:02:57.836Z,10.30
2023-04-11T02:03:57.804Z,10.32
2023-04-11T02:04:57.645Z,10.30
2023-04-11T02:05:57.635Z,10.30
2023-04-11T02:06:57.622Z,10.30
2023-04-11T02:07:57.604Z,10.30
2023-04-11T02:08:57.782Z,10.30
2023-04-11T02:09:57.578Z,10.30
2023-04-11T02:10:57.576Z,10.32
2023-04-11T02:11:57.554Z,10.30
2023-04-11T02:12:57.540Z,10.28
2023-04-11T02:13:57.524Z,10.30
2023-04-11T02:14:57.520Z,10.28
2023-04-11T02:15:57.543Z,10.28
2023-04-11T02:16:57.510Z,10.28
2023-04-11T02:17:57.539Z,10.28
2023-04-11T02:18:57.748Z,10.30
2023-04-11T02:19:57.454Z,10.28
2023-04-11T02:20:57.432Z,10.30
2023-04-11T02:21:57.420Z,10.30
2023-04-11T02:22:57.407Z,10.30
2023-04-11T02:23:57.396Z,10.28
2023-04-11T02:24:57.395Z,10.28
2023-04-11T02:25:57.365Z,10.28
2023-04-11T02:26:57.352Z,10.28
2023-04-11T02:27:57.339Z,10.28
2023-04-11T02:28:57.551Z,10.30
2023-04-11T02:29:57.309Z,10.28
2023-04-11T02:30:57.403Z,10.28
2023-04-11T02:31:57.382Z,10.28
2023-04-11T02:32:57.325Z,10.28
2023-04-11T02:33:57.255Z,10.26
2023-04-11T02:34:57.269Z,10.26
2023-04-11T02:35:57.239Z,10.26
2023-04-11T02:36:57.222Z,10.26
2023-04-11T02:37:57.202Z,10.26
2023-04-11T02:38:57.388Z,10.26
2023-04-11T02:39:57.176Z,10.26
2023-04-11T02:40:57.164Z,10.26
2023-04-11T02:41:57.152Z,10.26
2023-04-11T02:42:57.144Z,10.26
2023-04-11T02:43:57.122Z,10.25
2023-04-11T02:44:57.112Z,10.25
2023-04-11T02:46:09.602Z,10.26
2023-04-11T02:46:58.161Z,10.25
2023-04-11T02:47:57.105Z,10.25
2023-04-11T02:48:57.404Z,10.25
2023-04-11T02:49:57.044Z,10.26
2023-04-11T02:50:57.065Z,10.24
2023-04-11T02:51:57.017Z,10.25
2023-04-11T02:52:57.006Z,10.25
2023-04-11T02:53:56.995Z,10.24
2023-04-11T02:54:56.977Z,10.25
2023-04-11T02:55:56.962Z,10.25
2023-04-11T02:56:56.951Z,10.25
2023-04-11T02:57:56.935Z,10.25
2023-04-11T02:58:57.280Z,10.24
2023-04-11T02:59:56.909Z,10.25
2023-04-11T03:00:56.897Z,10.24
2023-04-11T03:01:56.983Z,10.25
2023-04-11T03:02:57.093Z,10.24
2023-04-11T03:03:56.982Z,10.24
2023-04-11T03:04:56.849Z,10.24
2023-04-11T03:05:56.830Z,10.25
2023-04-11T03:06:56.839Z,10.24
2023-04-11T03:07:56.802Z,10.25
2023-04-11T03:08:57.056Z,10.25
2023-04-11T03:09:56.772Z,10.25
2023-04-11T03:10:56.769Z,10.25
2023-04-11T03:11:56.744Z,10.24
2023-04-11T03:12:56.734Z,10.24
2023-04-11T03:13:56.746Z,10.24
2023-04-11T03:15:02.730Z,10.25
2023-04-11T03:15:56.753Z,10.24
2023-04-11T03:16:56.685Z,10.24
2023-04-11T03:18:31.622Z,10.25
2023-04-11T03:19:37.613Z,10.24
2023-04-11T03:22:48.432Z,10.24
2023-04-11T03:23:48.392Z,10.24
2023-04-11T03:24:48.380Z,10.24
2023-04-11T03:25:48.367Z,10.24
2023-04-11T03:26:48.354Z,10.24
2023-04-11T03:27:48.341Z,10.24
2023-04-11T03:28:48.328Z,10.22
2023-04-11T03:29:48.316Z,10.24
2023-04-11T03:30:48.303Z,10.22
2023-04-11T03:31:48.344Z,10.22
2023-04-11T03:32:48.333Z,10.22
2023-04-11T03:33:48.263Z,10.24
2023-04-11T03:34:48.251Z,10.24
2023-04-11T03:35:48.256Z,10.21
2023-04-11T03:36:48.222Z,10.22
2023-04-11T03:37:48.208Z,10.24
2023-04-11T03:38:48.220Z,10.22
2023-04-11T03:39:48.185Z,10.22
2023-04-11T03:40:48.178Z,10.22
2023-04-11T03:41:48.159Z,10.19
2023-04-11T03:42:48.145Z,10.21
2023-04-11T03:43:48.133Z,10.21
2023-04-11T03:44:48.120Z,10.21
2023-04-11T03:45:48.117Z,10.22
2023-04-11T03:46:48.120Z,10.22
2023-04-11T03:47:48.126Z,10.21
2023-04-11T03:48:48.070Z,10.21
2023-04-11T03:49:48.051Z,10.21
2023-04-11T03:50:48.040Z,10.19
2023-04-11T03:51:48.025Z,10.19
2023-04-11T03:52:48.009Z,10.19
2023-04-11T03:53:48.000Z,10.19
2023-04-11T03:54:48.044Z,10.19
2023-04-11T03:55:47.973Z,10.19
2023-04-11T03:56:47.957Z,10.19
2023-04-11T03:57:47.948Z,10.19
2023-04-11T03:58:47.953Z,10.21
2023-04-11T03:59:47.932Z,10.21
2023-04-11T04:00:47.903Z,10.19
2023-04-11T04:01:47.931Z,10.19
2023-04-11T04:02:48.031Z,10.21
2023-04-11T04:03:48.083Z,10.19
2023-04-11T04:04:47.887Z,10.19
2023-04-11T04:05:53.853Z,10.19
2023-04-11T04:06:47.830Z,10.19
2023-04-11T04:07:47.817Z,10.19
2023-04-11T04:08:47.800Z,10.18
2023-04-11T04:09:47.787Z,10.19
2023-04-11T04:10:47.798Z,10.18
2023-04-11T04:11:47.758Z,10.19
2023-04-11T04:12:47.753Z,10.18
2023-04-11T04:13:47.732Z,10.18
2023-04-11T04:14:47.720Z,10.18
2023-04-11T04:15:47.713Z,10.17
2023-04-11T04:16:47.718Z,10.17
2023-04-11T04:17:47.723Z,10.18
2023-04-11T04:18:47.663Z,10.18
2023-04-11T04:19:47.655Z,10.18
2023-04-11T04:20:47.635Z,10.17
2023-04-11T04:21:47.629Z,10.17
2023-04-11T04:22:47.615Z,10.19
2023-04-11T04:23:47.827Z,10.17
2023-04-11T04:24:47.590Z,10.18
2023-04-11T04:25:47.574Z,10.17
2023-04-11T04:26:47.594Z,10.18
2023-04-11T04:27:47.554Z,10.18
2023-04-11T04:28:47.531Z,10.17
2023-04-11T04:29:48.427Z,10.17
2023-04-11T04:30:48.547Z,10.17
2023-04-11T04:31:47.533Z,10.18
2023-04-11T04:32:53.501Z,10.18
2023-04-11T04:33:47.467Z,10.17
2023-04-11T04:34:47.455Z,10.17
2023-04-11T04:35:47.487Z,10.18
2023-04-11T04:36:47.428Z,10.17
2023-04-11T04:37:47.416Z,10.17
2023-04-11T04:38:53.407Z,10.17
2023-04-11T04:39:47.389Z,10.17
2023-04-11T04:40:49.671Z,10.17
2023-04-11T04:42:22.342Z,10.17
2023-04-11T04:43:22.305Z,10.15
2023-04-11T04:44:22.296Z,10.17
2023-04-11T04:45:22.275Z,10.17
2023-04-11T04:47:31.192Z,10.15
2023-04-11T04:48:31.152Z,10.15
2023-04-11T04:49:37.145Z,10.15
2023-04-11T04:50:37.131Z,10.17
2023-04-11T04:51:37.117Z,10.17
2023-04-11T04:53:06.153Z,10.17
2023-04-11T04:54:06.139Z,10.15
2023-04-11T04:58:30.867Z,10.17
2023-04-11T04:59:30.831Z,10.17
2023-04-11T05:00:30.815Z,10.15
2023-04-11T05:01:30.841Z,10.15
2023-04-11T05:02:31.202Z,10.15
2023-04-11T05:03:31.001Z,10.15
2023-04-11T05:04:30.794Z,10.15
2023-04-11T05:05:30.752Z,10.15
2023-04-11T05:06:30.744Z,10.17
2023-04-11T05:07:30.733Z,10.17
2023-04-11T05:08:30.712Z,10.17
2023-04-11T05:09:30.699Z,10.17
2023-04-11T05:10:30.685Z,10.17
2023-04-11T05:11:30.691Z,10.17
2023-04-11T05:12:36.666Z,10.17
2023-04-11T05:13:36.677Z,10.17
2023-04-11T05:18:01.379Z,10.18
2023-04-11T05:18:55.343Z,10.17
2023-04-11T05:20:36.286Z,10.18
2023-04-11T05:21:30.269Z,10.17
2023-04-11T05:22:30.252Z,10.17
2023-04-11T05:23:30.238Z,10.18
2023-04-11T05:24:30.226Z,10.18
2023-04-11T05:25:30.217Z,10.18
2023-04-11T05:26:30.202Z,10.18
2023-04-11T05:27:30.184Z,10.17
2023-04-11T05:28:30.174Z,10.15
2023-04-11T05:29:30.186Z,10.18
2023-04-11T05:30:30.177Z,10.17
2023-04-11T05:31:30.133Z,10.18
2023-04-11T05:32:30.147Z,10.17
2023-04-11T05:33:30.105Z,10.17
2023-04-11T05:34:30.094Z,10.18
2023-04-11T05:35:30.231Z,10.18
2023-04-11T05:36:30.067Z,10.18
2023-04-11T05:37:30.054Z,10.17
2023-04-11T05:38:30.044Z,10.17
2023-04-11T05:39:30.033Z,10.18
2023-04-11T05:40:30.017Z,10.17
2023-04-11T05:41:30.006Z,10.17
2023-04-11T05:43:05.396Z,10.18
2023-04-11T05:44:05.386Z,10.18
2023-04-11T05:45:05.404Z,10.17
2023-04-11T05:46:11.399Z,10.18
2023-04-11T05:47:05.366Z,10.18
2023-04-11T05:48:05.351Z,10.18
2023-04-11T05:49:05.326Z,10.18
2023-04-11T05:50:05.317Z,10.18
2023-04-11T05:51:05.299Z,10.18
2023-04-11T05:52:05.290Z,10.18
2023-04-11T05:53:11.272Z,10.18
2023-04-11T05:54:05.252Z,10.18
2023-04-11T05:56:14.148Z,10.19
2023-04-11T05:57:14.129Z,10.19
2023-04-11T05:58:14.126Z,10.19
2023-04-11T05:59:14.106Z,10.19
2023-04-11T06:00:14.124Z,10.19
2023-04-11T06:01:14.080Z,10.19
2023-04-11T06:02:14.165Z,10.18
2023-04-11T06:03:14.171Z,10.19
2023-04-11T06:04:14.209Z,10.21
2023-04-11T06:05:14.120Z,10.21
2023-04-11T06:06:20.013Z,10.22
2023-04-11T06:07:14.008Z,10.21
2023-04-11T06:08:48.940Z,10.21
2023-04-11T06:09:48.923Z,10.21
2023-04-11T06:10:48.909Z,10.19
2023-04-11T06:11:48.895Z,10.21
2023-04-11T06:12:48.886Z,10.21
2023-04-11T06:13:48.870Z,10.22
2023-04-11T06:14:48.858Z,10.21
2023-04-11T06:15:48.920Z,10.22
2023-04-11T06:16:48.828Z,10.24
2023-04-11T06:21:13.535Z,10.26
2023-04-11T06:25:04.283Z,10.30
2023-04-11T06:26:11.487Z,10.30
2023-04-11T06:27:04.258Z,10.28
2023-04-11T06:29:47.103Z,10.28
2023-04-11T06:30:47.091Z,10.25
2023-04-11T06:32:22.181Z,10.24
2023-04-11T06:33:28.027Z,10.22
2023-04-11T06:34:22.011Z,10.24
2023-04-11T06:35:21.994Z,10.24
2023-04-11T06:36:21.980Z,10.21
2023-04-11T06:37:21.972Z,10.21
2023-04-11T06:38:21.959Z,10.22
2023-04-11T06:39:21.956Z,10.21
2023-04-11T06:40:21.931Z,10.19
2023-04-11T06:41:21.935Z,10.22
2023-04-11T06:42:21.902Z,10.21
2023-04-11T06:43:21.889Z,10.22
2023-04-11T06:44:21.928Z,10.21
2023-04-11T06:45:21.865Z,10.25
2023-04-11T06:46:21.928Z,10.25
2023-04-11T06:47:21.924Z,10.26
2023-04-11T06:48:21.848Z,10.25
2023-04-11T06:49:21.809Z,10.26
2023-04-11T06:50:21.815Z,10.25
2023-04-11T06:51:21.787Z,10.25
2023-04-11T06:52:21.773Z,10.26
2023-04-11T06:56:46.475Z,10.25
2023-04-11T06:57:46.583Z,10.25
2023-04-11T06:58:46.462Z,10.25
2023-04-11T06:59:46.432Z,10.25
2023-04-11T07:00:46.423Z,10.26
2023-04-11T07:01:46.535Z,10.26
2023-04-11T07:02:46.651Z,10.26
2023-04-11T07:03:46.586Z,10.26
2023-04-11T07:04:46.615Z,10.26
2023-04-11T07:05:46.356Z,10.28
2023-04-11T07:06:46.357Z,10.26
2023-04-11T07:07:46.333Z,10.25
2023-04-11T07:08:46.337Z,10.26
2023-04-11T07:09:46.302Z,10.26
2023-04-11T07:10:46.291Z,10.28
2023-04-11T07:11:46.295Z,10.28
2023-04-11T07:12:46.264Z,10.28
2023-04-11T07:13:46.252Z,10.26
2023-04-11T07:14:46.238Z,10.30
2023-04-11T07:15:46.258Z,10.28
2023-04-11T07:16:46.298Z,10.26
2023-04-11T07:17:46.295Z,10.28
2023-04-11T07:18:46.188Z,10.28
2023-04-11T07:19:46.201Z,10.30
2023-04-11T07:20:46.158Z,10.28
2023-04-11T07:21:46.147Z,10.28
2023-04-11T07:22:46.134Z,10.26
2023-04-11T07:23:46.122Z,10.26
2023-04-11T07:24:46.107Z,10.28
2023-04-11T07:25:46.095Z,10.26
2023-04-11T07:26:46.082Z,10.28
2023-04-11T07:27:46.099Z,10.30
2023-04-11T07:28:46.057Z,10.28
2023-04-11T07:29:46.045Z,10.28
2023-04-11T07:30:46.028Z,10.28
2023-04-11T07:31:46.042Z,10.28
2023-04-11T07:32:46.025Z,10.28
2023-04-11T07:33:46.007Z,10.30
2023-04-11T07:34:45.977Z,10.30
2023-04-11T07:35:46.051Z,10.32
2023-04-11T07:36:45.969Z,10.32
2023-04-11T07:37:45.937Z,10.32
2023-04-11T07:38:45.923Z,10.30
2023-04-11T07:39:45.908Z,10.32
2023-04-11T07:40:45.896Z,10.32
2023-04-11T07:41:45.885Z,10.32
2023-04-11T07:42:45.868Z,10.32
2023-04-11T07:43:45.841Z,10.32
2023-04-11T07:44:45.842Z,10.32
2023-04-11T07:45:45.887Z,10.32
2023-04-11T07:46:45.817Z,10.30
2023-04-11T07:47:45.895Z,10.30
2023-04-11T07:48:45.777Z,10.30
2023-04-11T07:49:45.776Z,10.32
2023-04-11T07:50:45.763Z,10.32
2023-04-11T07:51:45.780Z,10.32
2023-04-11T07:52:45.737Z,10.32
2023-04-11T07:53:45.729Z,10.30
2023-04-11T07:54:45.711Z,10.33
2023-04-11T07:55:45.699Z,10.33
2023-04-11T07:56:45.672Z,10.34
2023-04-11T07:57:45.672Z,10.34
2023-04-11T07:58:45.679Z,10.33
2023-04-11T07:59:45.656Z,10.34
2023-04-11T08:00:45.632Z,10.36
2023-04-11T08:01:45.754Z,10.37
2023-04-11T08:02:45.779Z,10.37
2023-04-11T08:03:45.761Z,10.39
2023-04-11T08:04:45.723Z,10.40
2023-04-11T08:05:45.587Z,10.39
2023-04-11T08:06:45.566Z,10.37
2023-04-11T08:07:45.601Z,10.39
2023-04-11T08:08:45.534Z,10.36
2023-04-11T08:09:45.520Z,10.33
2023-04-11T08:10:45.502Z,10.34
2023-04-11T08:11:45.492Z,10.33
2023-04-11T08:12:45.483Z,10.36
2023-04-11T08:13:45.468Z,10.34
2023-04-11T08:14:45.476Z,10.36
2023-04-11T08:15:45.471Z,10.36
2023-04-11T08:16:45.509Z,10.34
2023-04-11T08:17:45.446Z,10.36
2023-04-11T08:18:45.402Z,10.37
2023-04-11T08:19:45.392Z,10.37
2023-04-11T08:20:45.376Z,10.39
2023-04-11T08:21:45.368Z,10.39
2023-04-11T08:22:45.351Z,10.39
2023-04-11T08:23:46.509Z,10.39
2023-04-11T08:24:45.327Z,10.40
2023-04-11T08:25:45.322Z,10.40
2023-04-11T08:26:45.307Z,10.40
2023-04-11T08:27:45.290Z,10.39
2023-04-11T08:28:45.279Z,10.39
2023-04-11T08:29:45.259Z,10.37
2023-04-11T08:30:45.258Z,10.37
2023-04-11T08:31:45.235Z,10.37
2023-04-11T08:32:45.267Z,10.37
2023-04-11T08:33:45.211Z,10.37
2023-04-11T08:34:45.197Z,10.37
2023-04-11T08:35:45.236Z,10.37
2023-04-11T08:36:45.181Z,10.37
2023-04-11T08:37:45.157Z,10.37
2023-04-11T08:38:45.141Z,10.37
2023-04-11T08:39:45.153Z,10.39
2023-04-11T08:40:45.115Z,10.39
2023-04-11T08:41:45.109Z,10.39
2023-04-11T08:42:45.098Z,10.40
2023-04-11T08:43:45.076Z,10.42
2023-04-11T08:44:45.064Z,10.42
2023-04-11T08:45:45.086Z,10.42
2023-04-11T08:46:45.036Z,10.40
2023-04-11T08:47:45.940Z,10.40
2023-04-11T08:48:45.010Z,10.40
2023-04-11T08:49:44.996Z,10.39
2023-04-11T08:50:44.983Z,10.37
2023-04-11T08:51:44.975Z,10.36
2023-04-11T08:52:45.255Z,10.36
2023-04-11T08:53:44.948Z,10.34
2023-04-11T08:54:44.938Z,10.34
2023-04-11T08:55:44.942Z,10.34
2023-04-11T08:56:44.908Z,10.34
2023-04-11T08:57:44.906Z,10.34
2023-04-11T08:58:44.893Z,10.33
2023-04-11T08:59:44.865Z,10.34
2023-04-11T09:00:44.854Z,10.36
2023-04-11T09:01:45.173Z,10.36
2023-04-11T09:02:44.901Z,10.36
2023-04-11T09:03:44.921Z,10.34
2023-04-11T09:04:44.945Z,10.34
2023-04-11T09:05:44.799Z,10.33
2023-04-11T09:06:44.772Z,10.36
2023-04-11T09:07:44.762Z,10.34
2023-04-11T09:08:44.748Z,10.36
2023-04-11T09:09:44.740Z,10.34
2023-04-11T09:10:44.725Z,10.34
2023-04-11T09:11:44.731Z,10.33
2023-04-11T09:12:44.680Z,10.33
2023-04-11T09:13:44.682Z,10.33
2023-04-11T09:14:44.712Z,10.33
2023-04-11T09:15:44.680Z,10.36
2023-04-11T09:16:44.646Z,10.34
2023-04-11T09:17:44.657Z,10.36
2023-04-11T09:18:44.715Z,10.36
2023-04-11T09:19:46.838Z,10.34
2023-04-11T09:20:44.578Z,10.36
2023-04-11T09:21:44.580Z,10.34
2023-04-11T09:22:44.565Z,10.34
2023-04-11T09:23:44.551Z,10.33
2023-04-11T09:24:44.539Z,10.34
2023-04-11T09:25:44.530Z,10.33
2023-04-11T09:26:44.514Z,10.33
2023-04-11T09:27:44.524Z,10.33
2023-04-11T09:28:44.528Z,10.33
2023-04-11T09:29:44.476Z,10.33
2023-04-11T09:30:44.466Z,10.33
2023-04-11T09:31:44.538Z,10.33
2023-04-11T09:32:44.432Z,10.33
2023-04-11T09:33:44.424Z,10.33
2023-04-11T09:34:44.408Z,10.34
2023-04-11T09:35:44.445Z,10.33
2023-04-11T09:36:44.397Z,10.34
2023-04-11T09:37:44.377Z,10.34
2023-04-11T09:38:44.355Z,10.34
2023-04-11T09:39:44.344Z,10.33
2023-04-11T09:40:44.337Z,10.34
2023-04-11T09:41:44.350Z,10.36
2023-04-11T09:42:44.306Z,10.36
2023-04-11T09:43:44.322Z,10.34
2023-04-11T09:44:44.278Z,10.39
2023-04-11T09:45:53.691Z,10.37
2023-04-11T09:46:45.383Z,10.34
2023-04-11T09:47:44.859Z,10.34
2023-04-11T09:48:46.886Z,10.34
2023-04-11T09:49:44.215Z,10.36
2023-04-11T09:50:44.214Z,10.33
2023-04-11T09:51:44.189Z,10.33
2023-04-11T09:52:44.176Z,10.32
2023-04-11T09:53:44.162Z,10.33
2023-04-11T09:54:44.146Z,10.32
2023-04-11T09:55:44.135Z,10.33
2023-04-11T09:56:44.124Z,10.33
2023-04-11T09:57:44.110Z,10.33
2023-04-11T09:58:44.094Z,10.33
2023-04-11T09:59:44.157Z,10.32
2023-04-11T10:00:44.067Z,10.34
2023-04-11T10:01:44.203Z,10.32
2023-04-11T10:02:44.222Z,10.32
2023-04-11T10:03:44.076Z,10.33
2023-04-11T10:04:44.057Z,10.33
2023-04-11T10:05:44.006Z,10.32
2023-04-11T10:06:43.992Z,10.30
2023-04-11T10:07:43.979Z,10.32
2023-04-11T10:08:43.961Z,10.32
2023-04-11T10:09:43.955Z,10.30
2023-04-11T10:10:43.947Z,10.30
2023-04-11T10:11:43.926Z,10.32
2023-04-11T10:12:43.910Z,10.32
2023-04-11T10:13:43.908Z,10.32
2023-04-11T10:14:43.885Z,10.32
2023-04-11T10:15:43.899Z,10.32
2023-04-11T10:16:43.950Z,10.32
2023-04-11T10:17:43.902Z,10.33
2023-04-11T10:18:43.832Z,10.34
2023-04-11T10:19:43.830Z,10.33
2023-04-11T10:20:43.875Z,10.33
2023-04-11T10:21:43.793Z,10.33
2023-04-11T10:22:44.187Z,10.34
2023-04-11T10:23:43.774Z,10.34
2023-04-11T10:24:43.755Z,10.34
2023-04-11T10:25:43.745Z,10.36
2023-04-11T10:26:43.726Z,10.34
2023-04-11T10:27:43.719Z,10.36
2023-04-11T10:28:43.706Z,10.36
2023-04-11T10:29:43.690Z,10.39
2023-04-11T10:30:43.676Z,10.39
2023-04-11T10:31:43.800Z,10.37
2023-04-11T10:32:43.700Z,10.37
2023-04-11T10:33:43.639Z,10.37
2023-04-11T10:34:43.625Z,10.39
2023-04-11T10:35:43.649Z,10.36
2023-04-11T10:36:43.602Z,10.37
2023-04-11T10:37:43.586Z,10.37
2023-04-11T10:38:43.590Z,10.34
2023-04-11T10:39:43.566Z,10.36
2023-04-11T10:40:43.548Z,10.36
2023-04-11T10:41:43.534Z,10.36
2023-04-11T10:42:43.554Z,10.37
2023-04-11T10:43:43.508Z,10.36
2023-04-11T10:44:43.495Z,10.36
2023-04-11T10:45:43.480Z,10.36
2023-04-11T10:46:43.563Z,10.36
2023-04-11T10:47:43.551Z,10.36
2023-04-11T10:48:43.443Z,10.33
2023-04-11T10:49:45.420Z,10.33
2023-04-11T10:50:43.420Z,10.34
2023-04-11T10:51:43.405Z,10.34
2023-04-11T10:52:43.391Z,10.37
2023-04-11T10:53:43.381Z,10.37
2023-04-11T10:54:43.363Z,10.37
2023-04-11T10:55:43.350Z,10.39
2023-04-11T10:56:43.335Z,10.37
2023-04-11T10:57:43.322Z,10.37
2023-04-11T10:58:43.312Z,10.40
2023-04-11T10:59:43.296Z,10.40
2023-04-11T11:00:43.328Z,10.40
2023-04-11T11:02:43.481Z,10.39
2023-04-11T11:03:43.551Z,10.37
2023-04-11T11:04:43.366Z,10.40
2023-04-11T11:05:43.215Z,10.42
2023-04-11T11:06:51.019Z,10.40
2023-04-11T11:07:44.230Z,10.42
2023-04-11T11:08:43.182Z,10.42
2023-04-11T11:09:43.172Z,10.43
2023-04-11T11:10:43.186Z,10.42
2023-04-11T11:11:43.133Z,10.43
2023-04-11T11:12:43.144Z,10.44
2023-04-11T11:13:43.118Z,10.44
2023-04-11T11:14:43.100Z,10.43
2023-04-11T11:15:43.081Z,10.43
2023-04-11T11:16:43.441Z,10.43
2023-04-11T11:17:43.098Z,10.44
2023-04-11T11:18:43.049Z,10.44
2023-04-11T11:19:43.051Z,10.43
2023-04-11T11:20:43.016Z,10.43
2023-04-11T11:21:43.002Z,10.44
2023-04-11T11:22:42.994Z,10.46
2023-04-11T11:23:42.974Z,10.47
2023-04-11T11:24:42.968Z,10.46
2023-04-11T11:25:42.948Z,10.46
2023-04-11T11:26:42.942Z,10.47
2023-04-11T11:27:42.923Z,10.50
2023-04-11T11:28:42.912Z,10.50
2023-04-11T11:29:42.895Z,10.51
2023-04-11T11:30:42.886Z,10.52
2023-04-11T11:31:42.899Z,10.51
2023-04-11T11:32:42.873Z,10.51
2023-04-11T11:33:42.846Z,10.54
2023-04-11T11:34:42.832Z,10.54
2023-04-11T11:35:42.880Z,10.54
2023-04-11T11:36:42.829Z,10.55
2023-04-11T11:37:42.793Z,10.57
2023-04-11T11:38:42.783Z,10.57
2023-04-11T11:39:42.767Z,10.58
2023-04-11T11:40:42.754Z,10.58
2023-04-11T11:41:42.742Z,10.57
2023-04-11T11:42:42.723Z,10.58
2023-04-11T11:43:42.713Z,10.59
2023-04-11T11:44:42.700Z,10.57
2023-04-11T11:45:42.710Z,10.57
2023-04-11T11:46:42.694Z,10.55
2023-04-11T11:47:42.697Z,10.55
2023-04-11T11:48:42.654Z,10.55
2023-04-11T11:49:42.652Z,10.55
2023-04-11T11:50:42.633Z,10.54
2023-04-11T11:51:42.635Z,10.54
2023-04-11T11:52:42.595Z,10.55
2023-04-11T11:53:42.585Z,10.55
2023-04-11T11:54:42.581Z,10.57
2023-04-11T11:55:42.556Z,10.58
2023-04-11T11:56:48.553Z,10.58
2023-04-11T11:57:42.535Z,10.61
2023-04-11T11:58:42.525Z,10.61
2023-04-11T11:59:45.507Z,10.61
2023-04-11T12:00:42.504Z,10.62
2023-04-11T12:01:42.496Z,10.62
2023-04-11T12:02:43.035Z,10.64
2023-04-11T12:03:42.621Z,10.65
2023-04-11T12:04:42.668Z,10.65
2023-04-11T12:05:42.429Z,10.64
2023-04-11T12:06:42.418Z,10.65
2023-04-11T12:07:42.438Z,10.65
2023-04-11T12:08:42.392Z,10.69
2023-04-11T12:09:42.377Z,10.67
2023-04-11T12:10:43.863Z,10.69
2023-04-11T12:11:42.365Z,10.69
2023-04-11T12:12:42.333Z,10.70
2023-04-11T12:13:42.318Z,10.67
2023-04-11T12:14:42.310Z,10.69
2023-04-11T12:15:42.330Z,10.69
2023-04-11T12:16:42.282Z,10.69
2023-04-11T12:17:42.290Z,10.70
2023-04-11T12:18:42.262Z,10.67
2023-04-11T12:19:42.244Z,10.67
2023-04-11T12:20:42.229Z,10.69
2023-04-11T12:21:42.216Z,10.67
2023-04-11T12:22:42.202Z,10.67
2023-04-11T12:23:42.217Z,10.67
2023-04-11T12:24:42.180Z,10.67
2023-04-11T12:25:42.163Z,10.65
2023-04-11T12:26:57.386Z,10.65
2023-04-11T12:27:43.176Z,10.64
2023-04-11T12:28:42.127Z,10.64
2023-04-11T12:29:42.112Z,10.62
2023-04-11T12:30:42.099Z,10.59
2023-04-11T12:31:44.518Z,10.61
2023-04-11T12:32:42.162Z,10.57
2023-04-11T12:33:42.091Z,10.57
2023-04-11T12:34:42.063Z,10.58
2023-04-11T12:35:42.031Z,10.58
2023-04-11T12:36:42.021Z,10.58
2023-04-11T12:37:42.003Z,10.59
2023-04-11T12:38:41.993Z,10.61
2023-04-11T12:39:42.011Z,10.61
2023-04-11T12:40:41.966Z,10.61
2023-04-11T12:41:41.950Z,10.59
2023-04-11T12:42:53.477Z,10.58
2023-04-11T12:43:42.979Z,10.58
2023-04-11T12:44:41.916Z,10.55
2023-04-11T12:45:41.909Z,10.57
2023-04-11T12:46:41.902Z,10.54
2023-04-11T12:47:41.914Z,10.55
2023-04-11T12:48:41.859Z,10.55
2023-04-11T12:49:41.847Z,10.55
2023-04-11T12:50:41.852Z,10.52
2023-04-11T12:51:41.821Z,10.54
2023-04-11T12:52:41.836Z,10.54
2023-04-11T12:53:41.793Z,10.54
2023-04-11T12:54:41.785Z,10.54
2023-04-11T12:55:41.790Z,10.54
2023-04-11T12:56:41.757Z,10.55
2023-04-11T12:57:41.756Z,10.54
2023-04-11T12:58:41.731Z,10.54
2023-04-11T12:59:41.714Z,10.54
2023-04-11T13:00:41.702Z,10.52
2023-04-11T13:01:41.799Z,10.52
2023-04-11T13:02:44.376Z,10.54
2023-04-11T13:03:41.870Z,10.54
2023-04-11T13:04:41.857Z,10.54
2023-04-11T13:05:41.649Z,10.52
2023-04-11T13:06:41.625Z,10.54
2023-04-11T13:07:41.617Z,10.54
2023-04-11T13:08:41.599Z,10.54
2023-04-11T13:09:41.584Z,10.54
2023-04-11T13:10:41.574Z,10.55
2023-04-11T13:11:41.585Z,10.55
2023-04-11T13:12:41.839Z,10.54
2023-04-11T13:13:41.543Z,10.57
2023-04-11T13:14:41.519Z,10.57
2023-04-11T13:15:41.514Z,10.57
2023-04-11T13:16:41.536Z,10.57
2023-04-11T13:17:41.548Z,10.57
2023-04-11T13:18:41.468Z,10.57
2023-04-11T13:19:41.451Z,10.58
2023-04-11T13:20:41.440Z,10.57